
Distance (Route):
Temperature : 18.8°C
Humidity : 47.7%
Pressure : 847.0hPa| Receiver | Frames | First received | Last received |
|---|---|---|---|
| AUTORXJP | 94 | 2026-09-02 12:32:11 | 2026-09-02 13:22:29 |
| Receiver | Date | Latitude | Longitude | Direction | Speed | Altitude | Climb | Temperature | Humidity | Pressure | Voltage | Killtimer | Uptime | BKT | XDATA |
|---|---|---|---|---|---|---|---|---|---|---|---|---|---|---|---|
| AUTORXJP | 2026-09-02 13:22:29 | 43.28594 | 5.08950 | 99° | 37km/h | 1669m | -8.3m/s | 18.8°C | 47.7% | 847.0hPa | 0V | 00:00:00 | 00:00:00 | 00:00:00 | |
| AUTORXJP | 2026-09-02 13:21:58 | 43.28614 | 5.08731 | 94° | 37km/h | 1816m | -8.5m/s | 18.3°C | 35.3% | 832.5hPa | 0V | 00:00:00 | 00:00:00 | 00:00:00 | |
| AUTORXJP | 2026-09-02 13:21:27 | 43.28639 | 5.08273 | 99° | 38km/h | 2096m | -6.8m/s | 16.6°C | 25.7% | 805.5hPa | 0V | 00:00:00 | 00:00:00 | 00:00:00 | |
| AUTORXJP | 2026-09-02 13:20:56 | 43.28674 | 5.07739 | 96° | 53km/h | 2390m | -8.7m/s | 13.9°C | 34.8% | 777.6hPa | 0V | 00:00:00 | 00:00:00 | 00:00:00 | |
| AUTORXJP | 2026-09-02 13:20:25 | 43.28739 | 5.07284 | 105° | 40km/h | 2686m | -8.2m/s | 12.0°C | 7.6% | 750.5hPa | 0V | 00:00:00 | 00:00:00 | 00:00:00 | |
| AUTORXJP | 2026-09-02 13:19:54 | 43.28873 | 5.06904 | 117° | 37km/h | 2997m | -9.5m/s | 10.0°C | 10.4% | 722.8hPa | 0V | 00:00:00 | 00:00:00 | 00:00:00 | |
| AUTORXJP | 2026-09-02 13:19:23 | 43.29037 | 5.06536 | 120° | 40km/h | 3284m | -7.2m/s | 9.2°C | 4.8% | 698.1hPa | 0V | 00:00:00 | 00:00:00 | 00:00:00 | |
| AUTORXJP | 2026-09-02 13:18:52 | 43.29194 | 5.06171 | 115° | 38km/h | 3573m | -8.0m/s | 7.3°C | 5.3% | 673.9hPa | 0V | 00:00:00 | 00:00:00 | 00:00:00 | |
| AUTORXJP | 2026-09-02 13:18:21 | 43.29323 | 5.05731 | 109° | 44km/h | 3854m | -7.4m/s | 5.3°C | 8.0% | 651.2hPa | 0V | 00:00:00 | 00:00:00 | 00:00:00 | |
| AUTORXJP | 2026-09-02 13:17:50 | 43.29437 | 5.05248 | 109° | 49km/h | 4141m | -7.6m/s | 3.1°C | 13.6% | 628.3hPa | 0V | 00:00:00 | 00:00:00 | 00:00:00 | |
| AUTORXJP | 2026-09-02 13:17:19 | 43.29575 | 5.04725 | 110° | 51km/h | 4431m | -7.9m/s | 0.7°C | 17.8% | 605.7hPa | 0V | 00:00:00 | 00:00:00 | 00:00:00 | |
| AUTORXJP | 2026-09-02 13:16:48 | 43.29715 | 5.04165 | 103° | 57km/h | 4737m | -10.0m/s | -1.7°C | 20.6% | 583.0hPa | 0V | 00:00:00 | 00:00:00 | 00:00:00 | |
| AUTORXJP | 2026-09-02 13:16:16 | 43.29917 | 5.03622 | 126° | 55km/h | 5049m | -8.2m/s | -3.2°C | 11.1% | 560.5hPa | 0V | 00:00:00 | 00:00:00 | 00:00:00 | |
| AUTORXJP | 2026-09-02 13:15:45 | 43.30194 | 5.03059 | 127° | 55km/h | 5368m | -7.9m/s | -5.0°C | 24.2% | 537.8hPa | 0V | 00:00:00 | 00:00:00 | 00:00:00 | |
| AUTORXJP | 2026-09-02 13:15:14 | 43.30477 | 5.02621 | 137° | 53km/h | 5690m | -8.6m/s | -7.4°C | 25.3% | 516.2hPa | 0V | 00:00:00 | 00:00:00 | 00:00:00 | |
| AUTORXJP | 2026-09-02 13:14:43 | 43.30819 | 5.02136 | 133° | 62km/h | 6001m | -9.2m/s | -9.5°C | 61.3% | 495.7hPa | 0V | 00:00:00 | 00:00:00 | 00:00:00 | |
| AUTORXJP | 2026-09-02 13:14:12 | 43.31168 | 5.01659 | 140° | 60km/h | 6336m | -9.3m/s | -11.8°C | 67.3% | 474.6hPa | 0V | 00:00:00 | 00:00:00 | 00:00:00 | |
| AUTORXJP | 2026-09-02 13:13:41 | 43.31541 | 5.01232 | 140° | 58km/h | 6671m | -9.8m/s | -14.4°C | 68.0% | 453.9hPa | 0V | 00:00:00 | 00:00:00 | 00:00:00 | |
| AUTORXJP | 2026-09-02 13:12:39 | 43.32194 | 5.00200 | 135° | 60km/h | 7379m | -9.9m/s | -18.8°C | 56.6% | 412.7hPa | 0V | 00:00:00 | 00:00:00 | 00:00:00 | |
| AUTORXJP | 2026-09-02 13:12:08 | 43.32550 | 4.99799 | 141° | 57km/h | 7737m | -9.2m/s | -20.7°C | 44.5% | 393.1hPa | 0V | 00:00:00 | 00:00:00 | 00:00:00 | |
| AUTORXJP | 2026-09-02 13:11:37 | 43.32943 | 4.99475 | 151° | 66km/h | 8104m | -10.8m/s | -23.7°C | 53.5% | 373.8hPa | 0V | 00:00:00 | 00:00:00 | 00:00:00 | |
| AUTORXJP | 2026-09-02 13:11:06 | 43.33390 | 4.99160 | 155° | 64km/h | 8472m | -11.7m/s | -26.8°C | 52.0% | 355.1hPa | 0V | 00:00:00 | 00:00:00 | 00:00:00 | |
| AUTORXJP | 2026-09-02 13:10:35 | 43.33887 | 4.98875 | 159° | 71km/h | 8852m | -9.2m/s | -30.0°C | 48.9% | 336.8hPa | 0V | 00:00:00 | 00:00:00 | 00:00:00 | |
| AUTORXJP | 2026-09-02 13:10:03 | 43.34389 | 4.98601 | 155° | 68km/h | 9235m | -10.2m/s | -32.7°C | 42.7% | 318.7hPa | 0V | 00:00:00 | 00:00:00 | 00:00:00 | |
| AUTORXJP | 2026-09-02 13:09:32 | 43.34916 | 4.98323 | 163° | 73km/h | 9623m | -8.2m/s | -36.0°C | 41.9% | 301.4hPa | 0V | 00:00:00 | 00:00:00 | 00:00:00 | |
| AUTORXJP | 2026-09-02 13:09:02 | 43.35438 | 4.98093 | 162° | 68km/h | 10009m | -11.8m/s | -39.0°C | 38.8% | 284.7hPa | 0V | 00:00:00 | 00:00:00 | 00:00:00 | |
| AUTORXJP | 2026-09-02 13:08:30 | 43.35998 | 4.97856 | 165° | 71km/h | 10419m | -12.6m/s | -42.6°C | 42.6% | 267.9hPa | 0V | 00:00:00 | 00:00:00 | 00:00:00 | |
| AUTORXJP | 2026-09-02 13:07:59 | 43.36585 | 4.97673 | 169° | 73km/h | 10830m | -12.5m/s | -45.7°C | 42.2% | 251.8hPa | 0V | 00:00:00 | 00:00:00 | 00:00:00 | |
| AUTORXJP | 2026-09-02 13:07:28 | 43.37165 | 4.97510 | 170° | 69km/h | 11249m | -13.0m/s | -49.4°C | 44.3% | 236.0hPa | 0V | 00:00:00 | 00:00:00 | 00:00:00 | |
| AUTORXJP | 2026-09-02 13:06:57 | 43.37724 | 4.97319 | 163° | 69km/h | 11676m | -13.9m/s | -52.9°C | 36.9% | 220.8hPa | 0V | 00:00:00 | 00:00:00 | 00:00:00 | |
| AUTORXJP | 2026-09-02 13:06:26 | 43.38280 | 4.97062 | 156° | 80km/h | 12105m | -12.6m/s | -55.9°C | 25.4% | 206.4hPa | 0V | 00:00:00 | 00:00:00 | 00:00:00 | |
| AUTORXJP | 2026-09-02 13:05:55 | 43.38829 | 4.96678 | 152° | 78km/h | 12545m | -10.7m/s | -58.2°C | 15.6% | 192.3hPa | 0V | 00:00:00 | 00:00:00 | 00:00:00 | |
| AUTORXJP | 2026-09-02 13:05:24 | 43.39352 | 4.96271 | 147° | 73km/h | 12948m | -12.1m/s | -60.4°C | 8.5% | 180.3hPa | 0V | 00:00:00 | 00:00:00 | 00:00:00 | |
| AUTORXJP | 2026-09-02 13:04:53 | 43.39882 | 4.95848 | 155° | 71km/h | 13380m | -12.7m/s | -61.5°C | 2.9% | 167.8hPa | 0V | 00:00:00 | 00:00:00 | 00:00:00 | |
| AUTORXJP | 2026-09-02 13:04:22 | 43.40340 | 4.95508 | 141° | 64km/h | 13812m | -13.2m/s | -60.9°C | 0.1% | 156.3hPa | 0V | 00:00:00 | 00:00:00 | 00:00:00 | |
| AUTORXJP | 2026-09-02 13:03:51 | 43.40732 | 4.95052 | 142° | 68km/h | 14209m | -13.9m/s | -60.6°C | 0.0% | 146.4hPa | 0V | 00:00:00 | 00:00:00 | 00:00:00 | |
| AUTORXJP | 2026-09-02 13:03:19 | 43.41072 | 4.94653 | 125° | 58km/h | 14621m | -13.7m/s | -60.8°C | 0.0% | 136.9hPa | 0V | 00:00:00 | 00:00:00 | 00:00:00 | |
| AUTORXJP | 2026-09-02 13:02:48 | 43.41411 | 4.94135 | 136° | 57km/h | 15050m | -12.3m/s | -58.4°C | 0.0% | 127.6hPa | 0V | 00:00:00 | 00:00:00 | 00:00:00 | |
| AUTORXJP | 2026-09-02 13:01:46 | 43.41811 | 4.93097 | 98° | 46km/h | 15830m | -13.4m/s | -57.3°C | 0.0% | 112.3hPa | 0V | 00:00:00 | 00:00:00 | 00:00:00 | |
| AUTORXJP | 2026-09-02 13:01:15 | 43.41910 | 4.92629 | 114° | 40km/h | 16230m | -10.9m/s | -58.3°C | 0.0% | 105.2hPa | 0V | 00:00:00 | 00:00:00 | 00:00:00 | |
| AUTORXJP | 2026-09-02 13:00:44 | 43.41969 | 4.92181 | 114° | 44km/h | 16636m | -11.4m/s | -59.4°C | 0.0% | 98.5hPa | 0V | 00:00:00 | 00:00:00 | 00:00:00 | |
| AUTORXJP | 2026-09-02 13:00:13 | 43.42130 | 4.91814 | 110° | 29km/h | 17053m | -14.2m/s | -59.3°C | 0.0% | 92.0hPa | 0V | 00:00:00 | 00:00:00 | 00:00:00 | |
| AUTORXJP | 2026-09-02 12:59:42 | 43.42159 | 4.91474 | 98° | 42km/h | 17481m | -13.0m/s | -60.8°C | 0.0% | 85.7hPa | 0V | 00:00:00 | 00:00:00 | 00:00:00 | |
| AUTORXJP | 2026-09-02 12:59:11 | 43.42261 | 4.91010 | 93° | 37km/h | 17899m | -11.3m/s | -58.7°C | 0.0% | 80.0hPa | 0V | 00:00:00 | 00:00:00 | 00:00:00 | |
| AUTORXJP | 2026-09-02 12:58:40 | 43.42359 | 4.90654 | 99° | 38km/h | 18347m | -15.3m/s | -57.5°C | 0.0% | 74.3hPa | 0V | 00:00:00 | 00:00:00 | 00:00:00 | |
| AUTORXJP | 2026-09-02 12:58:09 | 43.42361 | 4.90294 | 85° | 44km/h | 18847m | -17.9m/s | -57.4°C | 0.0% | 68.4hPa | 0V | 00:00:00 | 00:00:00 | 00:00:00 | |
| AUTORXJP | 2026-09-02 12:57:06 | 43.42455 | 4.90095 | 122° | 15km/h | 19837m | -10.7m/s | -57.7°C | 0.0% | 58.2hPa | 0V | 00:00:00 | 00:00:00 | 00:00:00 | |
| AUTORXJP | 2026-09-02 12:56:35 | 43.42548 | 4.90022 | 265° | 4km/h | 20307m | -14.2m/s | -56.1°C | 0.0% | 53.8hPa | 0V | 00:00:00 | 00:00:00 | 00:00:00 | |
| AUTORXJP | 2026-09-02 12:56:04 | 43.42621 | 4.89964 | 93° | 11km/h | 20769m | -17.8m/s | -55.7°C | 0.0% | 49.8hPa | 0V | 00:00:00 | 00:00:00 | 00:00:00 | |
| AUTORXJP | 2026-09-02 12:55:33 | 43.42740 | 4.89954 | 212° | 11km/h | 21316m | -15.9m/s | -54.4°C | 0.0% | 45.5hPa | 0V | 00:00:00 | 00:00:00 | 00:00:00 | |
| AUTORXJP | 2026-09-02 12:55:02 | 43.42839 | 4.89928 | 231° | 11km/h | 21872m | -17.5m/s | -53.7°C | 0.0% | 41.5hPa | 0V | 00:00:00 | 00:00:00 | 00:00:00 | |
| AUTORXJP | 2026-09-02 12:54:31 | 43.42780 | 4.90061 | 349° | 22km/h | 22428m | -16.4m/s | -52.4°C | 0.0% | 37.8hPa | 0V | 00:00:00 | 00:00:00 | 00:00:00 | |
| AUTORXJP | 2026-09-02 12:54:00 | 43.42648 | 4.89978 | 116° | 7km/h | 22975m | -17.8m/s | -51.1°C | 0.0% | 34.5hPa | 0V | 00:00:00 | 00:00:00 | 00:00:00 | |
| AUTORXJP | 2026-09-02 12:53:29 | 43.42672 | 4.90105 | 310° | 26km/h | 23510m | -17.4m/s | -52.1°C | 0.0% | 31.5hPa | 0V | 00:00:00 | 00:00:00 | 00:00:00 | |
| AUTORXJP | 2026-09-02 12:52:58 | 43.42569 | 4.90155 | 155° | 4km/h | 24018m | -13.8m/s | -51.1°C | 0.0% | 29.0hPa | 0V | 00:00:00 | 00:00:00 | 00:00:00 | |
| AUTORXJP | 2026-09-02 12:52:27 | 43.42523 | 4.90209 | 309° | 5km/h | 24560m | -20.0m/s | -48.8°C | 0.0% | 26.4hPa | 0V | 00:00:00 | 00:00:00 | 00:00:00 | |
| AUTORXJP | 2026-09-02 12:51:56 | 43.42461 | 4.90233 | 284° | 13km/h | 25116m | -16.6m/s | -48.4°C | 0.0% | 24.1hPa | 0V | 00:00:00 | 00:00:00 | 00:00:00 | |
| AUTORXJP | 2026-09-02 12:51:25 | 43.42349 | 4.90360 | 335° | 29km/h | 25662m | -18.2m/s | -49.0°C | 0.0% | 21.9hPa | 0V | 00:00:00 | 00:00:00 | 00:00:00 | |
| AUTORXJP | 2026-09-02 12:50:53 | 43.42231 | 4.90375 | 9° | 22km/h | 26081m | 4.5m/s | -48.3°C | 0.0% | 20.4hPa | 0V | 00:00:00 | 00:00:00 | 00:00:00 | |
| AUTORXJP | 2026-09-02 12:50:22 | 43.42102 | 4.90458 | 38° | 18km/h | 25921m | 4.6m/s | -48.8°C | 0.0% | 21.0hPa | 0V | 00:00:00 | 00:00:00 | 00:00:00 | |
| AUTORXJP | 2026-09-02 12:49:51 | 43.41982 | 4.90451 | 7° | 15km/h | 25756m | 5.9m/s | -48.9°C | 0.0% | 21.6hPa | 0V | 00:00:00 | 00:00:00 | 00:00:00 | |
| AUTORXJP | 2026-09-02 12:49:20 | 43.41818 | 4.90519 | 333° | 24km/h | 25595m | 5.9m/s | -48.8°C | 0.0% | 22.2hPa | 0V | 00:00:00 | 00:00:00 | 00:00:00 | |
| AUTORXJP | 2026-09-02 12:48:50 | 43.41679 | 4.90634 | 287° | 29km/h | 25424m | 5.6m/s | -48.7°C | 0.0% | 22.8hPa | 0V | 00:00:00 | 00:00:00 | 00:00:00 | |
| AUTORXJP | 2026-09-02 12:48:18 | 43.41596 | 4.90819 | 268° | 33km/h | 25254m | 6.1m/s | -48.3°C | 0.0% | 23.5hPa | 0V | 00:00:00 | 00:00:00 | 00:00:00 | |
| AUTORXJP | 2026-09-02 12:47:47 | 43.41590 | 4.90970 | 277° | 13km/h | 25081m | 5.3m/s | -47.9°C | 0.0% | 24.2hPa | 0V | 00:00:00 | 00:00:00 | 00:00:00 | |
| AUTORXJP | 2026-09-02 12:47:16 | 43.41569 | 4.90987 | 337° | 20km/h | 24916m | 5.7m/s | -47.6°C | 0.0% | 24.9hPa | 0V | 00:00:00 | 00:00:00 | 00:00:00 | |
| AUTORXJP | 2026-09-02 12:46:45 | 43.41496 | 4.91001 | 342° | 24km/h | 24757m | 5.9m/s | -48.4°C | 0.0% | 25.6hPa | 0V | 00:00:00 | 00:00:00 | 00:00:00 | |
| AUTORXJP | 2026-09-02 12:46:14 | 43.41432 | 4.91045 | 337° | 13km/h | 24599m | 5.3m/s | -48.4°C | 0.0% | 26.3hPa | 0V | 00:00:00 | 00:00:00 | 00:00:00 | |
| AUTORXJP | 2026-09-02 12:45:43 | 43.41376 | 4.91081 | 299° | 5km/h | 24440m | 5.7m/s | -49.3°C | 0.0% | 27.0hPa | 0V | 00:00:00 | 00:00:00 | 00:00:00 | |
| AUTORXJP | 2026-09-02 12:45:12 | 43.41259 | 4.91147 | 288° | 11km/h | 24286m | 6.1m/s | -50.2°C | 0.0% | 27.7hPa | 0V | 00:00:00 | 00:00:00 | 00:00:00 | |
| AUTORXJP | 2026-09-02 12:44:40 | 43.41248 | 4.91241 | 70° | 0km/h | 24134m | 3.8m/s | -50.9°C | 0.0% | 28.4hPa | 0V | 00:00:00 | 00:00:00 | 00:00:00 | |
| AUTORXJP | 2026-09-02 12:44:10 | 43.41300 | 4.91246 | 121° | 5km/h | 23981m | 5.6m/s | -51.1°C | 0.0% | 29.2hPa | 0V | 00:00:00 | 00:00:00 | 00:00:00 | |
| AUTORXJP | 2026-09-02 12:43:07 | 43.41086 | 4.91296 | 311° | 26km/h | 23659m | 4.5m/s | -52.2°C | 0.0% | 30.8hPa | 0V | 00:00:00 | 00:00:00 | 00:00:00 | |
| AUTORXJP | 2026-09-02 12:42:36 | 43.40940 | 4.91466 | 302° | 22km/h | 23506m | 5.3m/s | -51.9°C | 0.0% | 31.6hPa | 0V | 00:00:00 | 00:00:00 | 00:00:00 | |
| AUTORXJP | 2026-09-02 12:42:05 | 43.40899 | 4.91671 | 273° | 20km/h | 23352m | 5.7m/s | -51.3°C | 0.0% | 32.5hPa | 0V | 00:00:00 | 00:00:00 | 00:00:00 | |
| AUTORXJP | 2026-09-02 12:41:34 | 43.40973 | 4.91839 | 243° | 5km/h | 23196m | 4.0m/s | -51.2°C | 0.0% | 33.4hPa | 0V | 00:00:00 | 00:00:00 | 00:00:00 | |
| AUTORXJP | 2026-09-02 12:41:03 | 43.41051 | 4.91877 | 155° | 7km/h | 23046m | 5.0m/s | -51.0°C | 0.0% | 34.2hPa | 0V | 00:00:00 | 00:00:00 | 00:00:00 | |
| AUTORXJP | 2026-09-02 12:40:32 | 43.41047 | 4.91808 | 23° | 11km/h | 22895m | 5.0m/s | -51.5°C | 0.0% | 35.1hPa | 0V | 00:00:00 | 00:00:00 | 00:00:00 | |
| AUTORXJP | 2026-09-02 12:40:01 | 43.40916 | 4.91678 | 26° | 35km/h | 22740m | 5.3m/s | -51.7°C | 0.0% | 36.0hPa | 0V | 00:00:00 | 00:00:00 | 00:00:00 | |
| AUTORXJP | 2026-09-02 12:39:30 | 43.40699 | 4.91616 | 357° | 33km/h | 22588m | 5.0m/s | -52.0°C | 0.0% | 36.9hPa | 0V | 00:00:00 | 00:00:00 | 00:00:00 | |
| AUTORXJP | 2026-09-02 12:38:59 | 43.40519 | 4.91663 | 329° | 22km/h | 22436m | 5.7m/s | -52.3°C | 0.0% | 37.9hPa | 0V | 00:00:00 | 00:00:00 | 00:00:00 | |
| AUTORXJP | 2026-09-02 12:38:28 | 43.40375 | 4.91804 | 310° | 26km/h | 22284m | 5.3m/s | -52.6°C | 0.0% | 38.8hPa | 0V | 00:00:00 | 00:00:00 | 00:00:00 | |
| AUTORXJP | 2026-09-02 12:37:56 | 43.40285 | 4.92023 | 275° | 31km/h | 22136m | 4.0m/s | -52.9°C | 0.0% | 39.8hPa | 0V | 00:00:00 | 00:00:00 | 00:00:00 | |
| AUTORXJP | 2026-09-02 12:37:25 | 43.40299 | 4.92210 | 253° | 20km/h | 21982m | 5.2m/s | -53.9°C | 0.0% | 40.8hPa | 0V | 00:00:00 | 00:00:00 | 00:00:00 | |
| AUTORXJP | 2026-09-02 12:36:54 | 43.40391 | 4.92291 | 178° | 4km/h | 21833m | 4.6m/s | -53.7°C | 0.0% | 41.8hPa | 0V | 00:00:00 | 00:00:00 | 00:00:00 | |
| AUTORXJP | 2026-09-02 12:36:23 | 43.40517 | 4.92193 | 146° | 15km/h | 21688m | 4.4m/s | -53.7°C | 0.0% | 42.9hPa | 0V | 00:00:00 | 00:00:00 | 00:00:00 | |
| AUTORXJP | 2026-09-02 12:35:52 | 43.40602 | 4.92158 | 207° | 11km/h | 21543m | 4.5m/s | -53.9°C | 0.0% | 43.9hPa | 0V | 00:00:00 | 00:00:00 | 00:00:00 | |
| AUTORXJP | 2026-09-02 12:35:21 | 43.40658 | 4.92232 | 169° | 11km/h | 21389m | 4.6m/s | -54.2°C | 0.0% | 45.0hPa | 0V | 00:00:00 | 00:00:00 | 00:00:00 | |
| AUTORXJP | 2026-09-02 12:34:50 | 43.40744 | 4.92283 | 184° | 9km/h | 21239m | 5.2m/s | -54.4°C | 0.0% | 46.2hPa | 0V | 00:00:00 | 00:00:00 | 00:00:00 | |
| AUTORXJP | 2026-09-02 12:34:19 | 43.40858 | 4.92300 | 183° | 16km/h | 21086m | 5.4m/s | -54.4°C | 0.0% | 47.3hPa | 0V | 00:00:00 | 00:00:00 | 00:00:00 | |
| AUTORXJP | 2026-09-02 12:33:48 | 43.41036 | 4.92283 | 172° | 9km/h | 20935m | 4.8m/s | -54.8°C | 0.0% | 48.6hPa | 0V | 00:00:00 | 00:00:00 | 00:00:00 | |
| AUTORXJP | 2026-09-02 12:33:17 | 43.41074 | 4.92200 | 78° | 9km/h | 20781m | 6.0m/s | -55.4°C | 0.0% | 49.8hPa | 0V | 00:00:00 | 00:00:00 | 00:00:00 | |
| AUTORXJP | 2026-09-02 12:32:46 | 43.41117 | 4.92134 | 183° | 15km/h | 20628m | 5.1m/s | -54.9°C | 0.0% | 51.1hPa | 0V | 00:00:00 | 00:00:00 | 00:00:00 | |
| AUTORXJP | 2026-09-02 12:32:11 | 43.41266 | 4.92020 | 123° | 18km/h | 20461m | 3.3m/s | -55.5°C | 0.0% | 52.5hPa | 0V | 00:00:00 | 00:00:00 | 00:00:00 |